Time;durP1;ratioP1;P1;durP2;ratioP2;P2;SDS_P1;SDS_P2;PMS_P1;PMS_P2;Temp;Humidity;BMP_temperature;BMP_pressure;BME280_temperature;BME280_humidity;BME280_pressure;Samples;Min_cycle;Max_cycle;Signal;HPM_P1;HPM_P2
2023/06/12 00:01:12;;;;;;;12.43;10.80;;;;;;;;;;5070551;28;20083;-65
2023/06/12 00:03:40;;;;;;;12.05;10.85;;;;;;;;;;5074886;28;20052;-65
2023/06/12 00:06:09;;;;;;;12.57;11.35;;;;;;;;;;5063415;28;20091;-65
2023/06/12 00:08:36;;;;;;;12.75;11.45;;;;;;;;;;5074788;28;20131;-65
2023/06/12 00:11:07;;;;;;;12.60;11.30;;;;;;;;;;5075187;28;20106;-65
2023/06/12 00:13:33;;;;;;;12.48;11.20;;;;;;;;;;5075117;28;20090;-65
2023/06/12 00:16:00;;;;;;;13.50;11.73;;;;;;;;;;5075021;28;20051;-65
2023/06/12 00:18:26;;;;;;;12.48;11.38;;;;;;;;;;5075187;28;20051;-65
2023/06/12 00:20:52;;;;;;;13.05;11.73;;;;;;;;;;5074991;28;20142;-64
2023/06/12 00:23:19;;;;;;;13.50;12.10;;;;;;;;;;5075083;28;20056;-65
2023/06/12 00:25:45;;;;;;;12.40;11.10;;;;;;;;;;5074704;28;20057;-65
2023/06/12 00:28:12;;;;;;;12.23;11.13;;;;;;;;;;5074995;28;20052;-65
2023/06/12 00:30:38;;;;;;;11.45;10.43;;;;;;;;;;5074722;28;20052;-64
2023/06/12 00:33:05;;;;;;;11.93;10.77;;;;;;;;;;5074605;28;20081;-65
2023/06/12 00:35:31;;;;;;;13.70;12.13;;;;;;;;;;5074582;28;20070;-65
2023/06/12 00:37:59;;;;;;;13.40;12.20;;;;;;;;;;5074847;28;20400;-65
2023/06/12 00:40:26;;;;;;;13.05;11.80;;;;;;;;;;5056707;28;20074;-65
2023/06/12 00:42:52;;;;;;;12.85;11.48;;;;;;;;;;5074528;28;20162;-65
2023/06/12 00:45:20;;;;;;;13.68;12.35;;;;;;;;;;5074396;28;20061;-65
2023/06/12 00:47:55;;;;;;;12.85;11.65;;;;;;;;;;5074504;28;20087;-65
2023/06/12 00:50:31;;;;;;;12.60;11.43;;;;;;;;;;5074284;28;20128;-64
2023/06/12 00:52:58;;;;;;;12.95;11.57;;;;;;;;;;5056465;28;20059;-65
2023/06/12 00:55:26;;;;;;;12.25;11.05;;;;;;;;;;5074337;28;20049;-65
2023/06/12 00:57:52;;;;;;;11.85;10.82;;;;;;;;;;5074703;28;20056;-65
2023/06/12 01:00:19;;;;;;;12.87;11.50;;;;;;;;;;5074257;28;20488;-66
2023/06/12 01:02:47;;;;;;;12.40;11.20;;;;;;;;;;5056469;28;20164;-65
2023/06/12 01:05:16;;;;;;;11.82;10.50;;;;;;;;;;5074406;28;20057;-65
2023/06/12 01:07:50;;;;;;;12.23;11.02;;;;;;;;;;5074357;28;20484;-65
2023/06/12 01:10:23;;;;;;;13.02;10.73;;;;;;;;;;5073430;28;20056;-65
2023/06/12 01:12:50;;;;;;;11.27;10.07;;;;;;;;;;5074061;28;20052;-65
2023/06/12 01:15:17;;;;;;;12.43;11.02;;;;;;;;;;5073871;28;20044;-65
2023/06/12 01:17:43;;;;;;;11.25;10.23;;;;;;;;;;5074017;28;20065;-65
2023/06/12 01:20:12;;;;;;;11.57;10.32;;;;;;;;;;5067355;28;20052;-65
2023/06/12 01:22:46;;;;;;;10.90;9.80;;;;;;;;;;5073630;28;20044;-65
2023/06/12 01:25:23;;;;;;;12.23;11.02;;;;;;;;;;5073620;28;20056;-65
2023/06/12 01:28:21;;;;;;;10.95;9.98;;;;;;;;;;5073906;28;20059;-65
2023/06/12 01:31:08;;;;;;;11.80;10.70;;;;;;;;;;4986361;28;20062;-65
2023/06/12 01:33:37;;;;;;;11.38;10.25;;;;;;;;;;5073514;28;20515;-65
2023/06/12 01:36:06;;;;;;;11.85;10.60;;;;;;;;;;5073278;28;20051;-65
2023/06/12 01:38:34;;;;;;;11.52;10.40;;;;;;;;;;5073356;28;20045;-65
2023/06/12 01:41:01;;;;;;;11.50;10.40;;;;;;;;;;5073295;28;20466;-65
2023/06/12 01:43:27;;;;;;;11.65;10.50;;;;;;;;;;5073702;28;20491;-65
2023/06/12 01:45:54;;;;;;;12.10;10.85;;;;;;;;;;5073191;28;20060;-65
2023/06/12 01:48:20;;;;;;;11.77;10.70;;;;;;;;;;5073384;28;20446;-64
2023/06/12 01:50:47;;;;;;;12.10;11.00;;;;;;;;;;5073195;28;20496;-66
2023/06/12 01:53:15;;;;;;;13.30;11.25;;;;;;;;;;5073422;28;20040;-65
2023/06/12 01:55:42;;;;;;;12.93;11.63;;;;;;;;;;5073252;28;20049;-65
2023/06/12 01:58:08;;;;;;;12.93;11.63;;;;;;;;;;5073245;28;20048;-65
2023/06/12 02:00:35;;;;;;;13.52;12.23;;;;;;;;;;5072928;28;20060;-65
2023/06/12 02:03:02;;;;;;;14.53;12.77;;;;;;;;;;5072993;28;20045;-65
2023/06/12 02:05:29;;;;;;;13.80;12.40;;;;;;;;;;5072890;28;20812;-65
2023/06/12 02:07:55;;;;;;;13.88;12.50;;;;;;;;;;5072713;28;20068;-64
2023/06/12 02:10:22;;;;;;;12.45;11.18;;;;;;;;;;5072905;28;20067;-65
2023/06/12 02:12:48;;;;;;;13.48;12.13;;;;;;;;;;5073156;28;20055;-65
2023/06/12 02:15:15;;;;;;;12.60;11.40;;;;;;;;;;5072533;28;20561;-65
2023/06/12 02:17:42;;;;;;;14.67;11.77;;;;;;;;;;5072767;28;20044;-64
2023/06/12 02:20:09;;;;;;;14.10;12.63;;;;;;;;;;5055042;28;20055;-65
2023/06/12 02:22:36;;;;;;;13.13;11.82;;;;;;;;;;5072169;28;20049;-65
2023/06/12 02:25:03;;;;;;;12.70;11.48;;;;;;;;;;5072668;28;20052;-65
2023/06/12 02:27:29;;;;;;;13.30;12.00;;;;;;;;;;5072275;28;20040;-65
2023/06/12 02:29:56;;;;;;;13.95;12.52;;;;;;;;;;5072791;28;20282;-65
2023/06/12 02:32:22;;;;;;;13.43;12.23;;;;;;;;;;5072565;28;20049;-65
2023/06/12 02:34:49;;;;;;;13.80;12.52;;;;;;;;;;5072304;28;20486;-65
2023/06/12 02:37:16;;;;;;;15.25;13.57;;;;;;;;;;5072343;28;20049;-65
2023/06/12 02:39:43;;;;;;;15.20;13.70;;;;;;;;;;5072586;28;20041;-65
2023/06/12 02:42:10;;;;;;;14.85;13.32;;;;;;;;;;5072477;28;20313;-65
2023/06/12 02:44:37;;;;;;;15.52;14.02;;;;;;;;;;5071944;28;20443;-65
2023/06/12 02:47:03;;;;;;;16.42;14.90;;;;;;;;;;5072240;28;20056;-65
2023/06/12 02:49:30;;;;;;;16.83;14.70;;;;;;;;;;5071959;28;20098;-65
2023/06/12 02:51:57;;;;;;;17.38;15.70;;;;;;;;;;5072344;28;20075;-65
2023/06/12 02:54:26;;;;;;;18.45;16.58;;;;;;;;;;5072198;28;20056;-65
2023/06/12 02:56:53;;;;;;;18.33;16.52;;;;;;;;;;5072140;28;20475;-64
2023/06/12 02:59:21;;;;;;;18.33;16.52;;;;;;;;;;5071828;28;20605;-65
2023/06/12 03:01:48;;;;;;;19.08;17.08;;;;;;;;;;5071726;28;20045;-64
2023/06/12 03:04:18;;;;;;;18.27;16.40;;;;;;;;;;5072063;28;20044;-65
2023/06/12 03:06:45;;;;;;;18.67;16.88;;;;;;;;;;5071681;28;20326;-65
2023/06/12 03:09:15;;;;;;;19.50;17.60;;;;;;;;;;5072004;28;20053;-65
2023/06/12 03:11:43;;;;;;;21.77;17.90;;;;;;;;;;5071647;28;20538;-64
2023/06/12 03:14:10;;;;;;;19.27;17.23;;;;;;;;;;5053858;28;20397;-65
2023/06/12 03:16:40;;;;;;;18.70;16.92;;;;;;;;;;5067988;28;20044;-65
2023/06/12 03:19:07;;;;;;;21.65;18.27;;;;;;;;;;5061268;28;20076;-65
2023/06/12 03:21:35;;;;;;;20.55;18.35;;;;;;;;;;5071626;28;20500;-65
2023/06/12 03:24:02;;;;;;;20.95;17.42;;;;;;;;;;5071976;28;20044;-65
2023/06/12 03:26:31;;;;;;;21.83;19.63;;;;;;;;;;5071428;28;20052;-65
2023/06/12 03:28:58;;;;;;;19.83;17.67;;;;;;;;;;5071391;28;20056;-65
2023/06/12 03:31:26;;;;;;;23.17;18.95;;;;;;;;;;5053892;28;20422;-64
2023/06/12 03:33:56;;;;;;;20.73;18.50;;;;;;;;;;5071366;28;20048;-65
2023/06/12 03:36:26;;;;;;;21.70;18.17;;;;;;;;;;5071507;28;20492;-64
2023/06/12 03:38:53;;;;;;;21.42;18.73;;;;;;;;;;5071755;28;20041;-65
2023/06/12 03:41:22;;;;;;;22.95;19.73;;;;;;;;;;5071633;28;20048;-65
2023/06/12 03:43:49;;;;;;;20.70;17.80;;;;;;;;;;5071612;28;20052;-64
2023/06/12 03:46:15;;;;;;;23.93;18.60;;;;;;;;;;5071409;28;20083;-65
2023/06/12 03:48:42;;;;;;;22.92;19.55;;;;;;;;;;5071322;28;20289;-65
2023/06/12 03:51:09;;;;;;;24.25;19.00;;;;;;;;;;5071375;28;20565;-65
2023/06/12 03:53:37;;;;;;;24.58;19.13;;;;;;;;;;5071435;28;20053;-65
2023/06/12 03:56:03;;;;;;;20.55;18.45;;;;;;;;;;5071327;28;20048;-65
2023/06/12 03:58:29;;;;;;;22.00;19.08;;;;;;;;;;5071269;28;20041;-65
2023/06/12 04:00:56;;;;;;;22.85;19.73;;;;;;;;;;5071245;28;20048;-65
2023/06/12 04:03:24;;;;;;;21.92;19.40;;;;;;;;;;5071451;28;20049;-65
2023/06/12 04:05:51;;;;;;;22.17;19.80;;;;;;;;;;5071087;28;20053;-65
2023/06/12 04:08:18;;;;;;;24.80;20.20;;;;;;;;;;5057160;28;20041;-65
2023/06/12 04:10:44;;;;;;;23.98;19.52;;;;;;;;;;5071370;28;20048;-65
2023/06/12 04:13:11;;;;;;;21.90;19.55;;;;;;;;;;5071109;28;20048;-65
2023/06/12 04:15:39;;;;;;;22.15;19.80;;;;;;;;;;5071043;28;20059;-65
2023/06/12 04:18:07;;;;;;;20.13;18.05;;;;;;;;;;5053507;28;20062;-65
2023/06/12 04:20:33;;;;;;;22.55;18.88;;;;;;;;;;5071747;28;20143;-65
2023/06/12 04:23:04;;;;;;;24.13;19.13;;;;;;;;;;5071323;28;20045;-65
2023/06/12 04:25:32;;;;;;;21.88;19.20;;;;;;;;;;5071312;28;20446;-65
2023/06/12 04:27:59;;;;;;;23.13;20.67;;;;;;;;;;5070867;28;20051;-65
2023/06/12 04:30:25;;;;;;;24.50;20.70;;;;;;;;;;5071203;28;20579;-65
2023/06/12 04:32:56;;;;;;;22.45;19.23;;;;;;;;;;5071389;28;20055;-65
2023/06/12 04:35:23;;;;;;;23.77;18.95;;;;;;;;;;5071244;28;20060;-65
2023/06/12 04:37:52;;;;;;;24.13;20.50;;;;;;;;;;5070695;28;20484;-65
2023/06/12 04:40:22;;;;;;;24.85;20.65;;;;;;;;;;5071143;28;20049;-65
2023/06/12 04:42:56;;;;;;;24.65;20.65;;;;;;;;;;5071188;28;20041;-65
2023/06/12 04:45:23;;;;;;;26.30;21.70;;;;;;;;;;5073354;28;20071;-65
2023/06/12 04:47:50;;;;;;;25.67;21.02;;;;;;;;;;5074368;28;20542;-65
2023/06/12 04:50:18;;;;;;;23.13;20.63;;;;;;;;;;5074215;28;20088;-65
2023/06/12 04:52:47;;;;;;;25.30;20.08;;;;;;;;;;5074428;28;20563;-65
2023/06/12 04:55:20;;;;;;;27.58;21.17;;;;;;;;;;5074969;28;20053;-65
2023/06/12 04:57:47;;;;;;;32.40;21.95;;;;;;;;;;5056352;28;20044;-65
2023/06/12 05:00:15;;;;;;;25.77;22.05;;;;;;;;;;5074455;28;20130;-65
2023/06/12 05:02:43;;;;;;;24.05;20.88;;;;;;;;;;5074018;28;20048;-65
2023/06/12 05:05:09;;;;;;;27.95;22.52;;;;;;;;;;5074229;28;20048;-65
2023/06/12 05:07:36;;;;;;;26.83;21.27;;;;;;;;;;5074231;28;20056;-65
2023/06/12 05:10:03;;;;;;;29.20;22.53;;;;;;;;;;5074081;28;20044;-65
2023/06/12 05:12:30;;;;;;;;;;;;;;;;;;5074631;28;20063;-65
2023/06/12 05:14:59;;;;;;;27.70;22.40;;;;;;;;;;5073898;28;19924;-65
2023/06/12 05:17:27;;;;;;;25.27;21.58;;;;;;;;;;5073801;28;20068;-65
2023/06/12 05:19:53;;;;;;;25.85;21.17;;;;;;;;;;5074149;28;20048;-65
2023/06/12 05:22:20;;;;;;;24.10;21.43;;;;;;;;;;5073696;28;20048;-65
2023/06/12 05:24:46;;;;;;;27.50;21.20;;;;;;;;;;5059055;28;20049;-66
2023/06/12 05:27:13;;;;;;;29.75;22.42;;;;;;;;;;5055979;28;20048;-64
2023/06/12 05:29:39;;;;;;;26.88;21.45;;;;;;;;;;5073840;28;20507;-64
2023/06/12 05:32:06;;;;;;;26.90;21.38;;;;;;;;;;5073763;28;20060;-63
2023/06/12 05:34:33;;;;;;;26.40;22.77;;;;;;;;;;5073924;28;20056;-65
2023/06/12 05:36:59;;;;;;;27.20;22.20;;;;;;;;;;5073436;28;20040;-65
2023/06/12 05:39:26;;;;;;;25.40;21.50;;;;;;;;;;5073583;28;20060;-64
2023/06/12 05:41:52;;;;;;;26.58;21.77;;;;;;;;;;5073431;28;20044;-65
2023/06/12 05:44:18;;;;;;;24.92;22.17;;;;;;;;;;5073126;28;20048;-65
2023/06/12 05:46:48;;;;;;;23.60;20.98;;;;;;;;;;5073315;28;20052;-65
2023/06/12 05:49:14;;;;;;;24.15;21.55;;;;;;;;;;5073554;28;20461;-65
2023/06/12 05:51:41;;;;;;;24.13;20.80;;;;;;;;;;5073452;28;20060;-65
2023/06/12 05:54:09;;;;;;;24.60;20.65;;;;;;;;;;5062875;28;20063;-65
2023/06/12 05:56:35;;;;;;;23.57;21.07;;;;;;;;;;5057319;28;20132;-65
2023/06/12 05:59:02;;;;;;;24.67;22.02;;;;;;;;;;5073118;28;20491;-64
2023/06/12 06:01:31;;;;;;;23.55;21.05;;;;;;;;;;5072964;28;20496;-65
2023/06/12 06:03:58;;;;;;;23.73;20.73;;;;;;;;;;5072991;28;20491;-66
2023/06/12 06:06:25;;;;;;;;;;;;;;;;;;5073362;28;20148;-65
2023/06/12 06:08:51;;;;;;;23.83;20.87;;;;;;;;;;5072926;28;19926;-66
2023/06/12 06:11:19;;;;;;;25.67;20.53;;;;;;;;;;5073145;28;20367;-64
2023/06/12 06:13:46;;;;;;;23.45;21.00;;;;;;;;;;5072748;28;20063;-64
2023/06/12 06:16:12;;;;;;;25.80;21.50;;;;;;;;;;5073134;28;20415;-64
2023/06/12 06:18:40;;;;;;;23.67;21.07;;;;;;;;;;5058853;28;20056;-64
2023/06/12 06:21:06;;;;;;;;;;;;;;;;;;5053091;28;20397;-65
2023/06/12 06:23:33;;;;;;;23.73;21.30;;;;;;;;;;5052286;28;19924;-65
2023/06/12 06:26:02;;;;;;;23.50;20.98;;;;;;;;;;5052359;28;20860;-65
2023/06/12 06:28:29;;;;;;;22.25;19.98;;;;;;;;;;5065518;28;20052;-65
2023/06/12 06:30:55;;;;;;;22.23;19.92;;;;;;;;;;5072367;28;20064;-65
2023/06/12 06:33:22;;;;;;;22.13;19.97;;;;;;;;;;5054916;28;20508;-64
2023/06/12 06:35:48;;;;;;;21.83;19.77;;;;;;;;;;5072328;28;20277;-64
2023/06/12 06:38:20;;;;;;;20.50;18.57;;;;;;;;;;5072398;28;20301;-65
2023/06/12 06:40:47;;;;;;;21.75;19.65;;;;;;;;;;5072199;28;20044;-64
2023/06/12 06:43:14;;;;;;;20.15;18.17;;;;;;;;;;5072238;28;20053;-65
2023/06/12 06:45:41;;;;;;;20.77;18.88;;;;;;;;;;5072082;28;20469;-64
2023/06/12 06:48:07;;;;;;;20.37;18.23;;;;;;;;;;5071393;28;20499;-65
2023/06/12 06:50:34;;;;;;;20.55;18.65;;;;;;;;;;5067027;28;20057;-65
2023/06/12 06:53:03;;;;;;;19.80;18.00;;;;;;;;;;5071945;28;20049;-65
2023/06/12 06:55:30;;;;;;;19.33;17.52;;;;;;;;;;5072270;28;20408;-65
2023/06/12 06:57:57;;;;;;;19.40;17.63;;;;;;;;;;5071936;28;20048;-65
2023/06/12 07:00:23;;;;;;;19.45;17.63;;;;;;;;;;5071954;28;20051;-65
2023/06/12 07:02:50;;;;;;;20.17;18.20;;;;;;;;;;5072122;28;20048;-65
2023/06/12 07:05:16;;;;;;;19.10;17.45;;;;;;;;;;5072200;28;20400;-65
2023/06/12 07:07:47;;;;;;;19.48;17.77;;;;;;;;;;5071542;28;20052;-65
2023/06/12 07:10:26;;;;;;;19.20;17.50;;;;;;;;;;5071802;28;20048;-65
2023/06/12 07:12:56;;;;;;;19.42;17.58;;;;;;;;;;5071919;28;20571;-65
2023/06/12 07:15:26;;;;;;;18.38;16.65;;;;;;;;;;5071843;28;20071;-65
2023/06/12 07:17:53;;;;;;;19.00;17.20;;;;;;;;;;5071250;28;20127;-65
2023/06/12 07:20:20;;;;;;;18.77;17.10;;;;;;;;;;5071469;28;20053;-65
2023/06/12 07:22:46;;;;;;;19.15;17.42;;;;;;;;;;5071641;28;20060;-65
2023/06/12 07:25:13;;;;;;;18.60;16.90;;;;;;;;;;5071626;28;20502;-65
2023/06/12 07:27:40;;;;;;;19.55;17.85;;;;;;;;;;5071522;28;20078;-65
2023/06/12 07:30:07;;;;;;;19.93;18.13;;;;;;;;;;5071775;28;20492;-65
2023/06/12 07:32:33;;;;;;;19.70;17.67;;;;;;;;;;5071461;28;20368;-65
2023/06/12 07:35:00;;;;;;;19.58;17.88;;;;;;;;;;5070719;28;20055;-65
2023/06/12 07:37:27;;;;;;;20.90;19.07;;;;;;;;;;5071657;28;20098;-65
2023/06/12 07:39:53;;;;;;;20.95;19.15;;;;;;;;;;5052909;28;20048;-65
2023/06/12 07:42:20;;;;;;;21.03;19.30;;;;;;;;;;5070692;28;20120;-65
2023/06/12 07:44:46;;;;;;;21.77;19.83;;;;;;;;;;5071467;28;20342;-65
2023/06/12 07:47:13;;;;;;;22.63;20.60;;;;;;;;;;5071385;28;20281;-65
2023/06/12 07:49:40;;;;;;;21.75;19.85;;;;;;;;;;5071278;28;20514;-66
2023/06/12 07:52:06;;;;;;;21.67;19.63;;;;;;;;;;5071354;28;20052;-65
2023/06/12 07:54:32;;;;;;;22.17;20.07;;;;;;;;;;5071275;28;20052;-65
2023/06/12 07:56:59;;;;;;;21.83;19.80;;;;;;;;;;5071618;28;20044;-65
2023/06/12 07:59:25;;;;;;;22.43;20.53;;;;;;;;;;5071593;28;20052;-65
2023/06/12 08:01:52;;;;;;;21.47;19.57;;;;;;;;;;5071246;28;20048;-65
2023/06/12 08:04:18;;;;;;;22.53;20.63;;;;;;;;;;5071250;28;20360;-65
2023/06/12 08:06:47;;;;;;;21.60;19.63;;;;;;;;;;5057918;28;20099;-65
2023/06/12 08:09:14;;;;;;;21.77;19.83;;;;;;;;;;5051296;28;20361;-65
2023/06/12 08:11:41;;;;;;;21.98;19.83;;;;;;;;;;5051363;28;20049;-65
2023/06/12 08:14:08;;;;;;;20.70;18.90;;;;;;;;;;5033673;28;20045;-66
2023/06/12 08:16:34;;;;;;;20.67;18.73;;;;;;;;;;5051370;28;20052;-66
2023/06/12 08:19:01;;;;;;;20.67;18.98;;;;;;;;;;5051585;28;20045;-65
2023/06/12 08:21:28;;;;;;;20.95;19.20;;;;;;;;;;5056857;28;20052;-65
2023/06/12 08:23:54;;;;;;;20.40;18.58;;;;;;;;;;5075049;28;20408;-65
2023/06/12 08:26:22;;;;;;;20.23;18.40;;;;;;;;;;5071469;28;20048;-65
2023/06/12 08:28:48;;;;;;;;;;;;;;;;;;5070847;28;20063;-65
2023/06/12 08:31:15;;;;;;;19.30;17.70;;;;;;;;;;5074650;28;19947;-65
2023/06/12 08:33:41;;;;;;;19.20;17.60;;;;;;;;;;5074759;28;20048;-65
2023/06/12 08:36:08;;;;;;;19.23;17.60;;;;;;;;;;5075026;28;20052;-65
2023/06/12 08:38:34;;;;;;;19.13;17.33;;;;;;;;;;5061398;28;20063;-62
2023/06/12 08:41:01;;;;;;;17.70;16.20;;;;;;;;;;5071842;28;20063;-62
2023/06/12 08:43:28;;;;;;;18.42;16.83;;;;;;;;;;5073905;28;20040;-62
2023/06/12 08:45:56;;;;;;;19.08;17.58;;;;;;;;;;5073791;28;20048;-63
2023/06/12 08:48:24;;;;;;;19.10;17.60;;;;;;;;;;5072739;28;20412;-62
2023/06/12 08:50:51;;;;;;;18.83;17.45;;;;;;;;;;5053652;28;20049;-62
2023/06/12 08:53:17;;;;;;;18.58;17.17;;;;;;;;;;5053329;28;20405;-62
2023/06/12 08:55:44;;;;;;;19.55;17.88;;;;;;;;;;5053904;28;20048;-62
2023/06/12 08:58:10;;;;;;;;;;;;;;;;;;5054073;28;20049;-62
2023/06/12 09:00:37;;;;;;;17.17;15.88;;;;;;;;;;5053854;28;19924;-62
2023/06/12 09:03:05;;;;;;;18.23;16.73;;;;;;;;;;5053861;28;20041;-62
2023/06/12 09:05:33;;;;;;;17.38;15.98;;;;;;;;;;5062460;28;20041;-62
2023/06/12 09:08:00;;;;;;;18.65;17.15;;;;;;;;;;5053400;28;20049;-62
2023/06/12 09:10:27;;;;;;;19.73;18.02;;;;;;;;;;5053476;28;20099;-62
2023/06/12 09:12:54;;;;;;;20.73;19.13;;;;;;;;;;5053133;28;20471;-63
2023/06/12 09:15:21;;;;;;;20.42;18.63;;;;;;;;;;5053481;28;20056;-62
2023/06/12 09:17:48;;;;;;;19.80;18.33;;;;;;;;;;5053404;28;20064;-62
2023/06/12 09:20:17;;;;;;;20.95;19.25;;;;;;;;;;5051494;28;20049;-62
2023/06/12 09:23:02;;;;;;;21.63;20.00;;;;;;;;;;5063145;28;20083;-62
2023/06/12 09:25:35;;;;;;;20.55;19.05;;;;;;;;;;5068584;28;20048;-62
2023/06/12 09:28:04;;;;;;;20.60;18.90;;;;;;;;;;5062227;28;20055;-62
2023/06/12 09:30:31;;;;;;;19.52;18.13;;;;;;;;;;5057171;28;20079;-62
2023/06/12 09:32:58;;;;;;;;;;;;;;;;;;5058694;28;20136;-62
2023/06/12 09:35:24;;;;;;;19.17;17.52;;;;;;;;;;5073252;28;19924;-63
2023/06/12 09:37:51;;;;;;;18.52;17.13;;;;;;;;;;5072741;28;20047;-62
2023/06/12 09:40:18;;;;;;;;;;;;;;;;;;5060083;28;20443;-63
2023/06/12 09:42:45;;;;;;;19.70;18.40;;;;;;;;;;5064508;28;19921;-63
2023/06/12 09:45:12;;;;;;;20.52;18.92;;;;;;;;;;5052749;28;20114;-63
2023/06/12 09:47:42;;;;;;;19.63;18.13;;;;;;;;;;5053636;28;20103;-63
2023/06/12 09:50:11;;;;;;;20.30;18.70;;;;;;;;;;5053055;28;20496;-63
2023/06/12 09:52:40;;;;;;;20.13;18.58;;;;;;;;;;5035721;28;20198;-63
2023/06/12 09:55:08;;;;;;;21.27;19.58;;;;;;;;;;5053175;28;20057;-63
2023/06/12 09:57:35;;;;;;;21.50;19.85;;;;;;;;;;5053245;28;20053;-63
2023/06/12 10:00:03;;;;;;;19.15;17.85;;;;;;;;;;5053435;28;20373;-64
2023/06/12 10:02:29;;;;;;;17.60;16.42;;;;;;;;;;5053187;28;20463;-63
2023/06/12 10:05:01;;;;;;;20.13;18.83;;;;;;;;;;5035545;28;20037;-63
2023/06/12 10:07:28;;;;;;;21.08;19.58;;;;;;;;;;5053105;28;20081;-63
2023/06/12 10:09:56;;;;;;;18.58;17.27;;;;;;;;;;5053185;28;20065;-63
2023/06/12 10:12:23;;;;;;;20.27;18.85;;;;;;;;;;5052760;28;20540;-63
2023/06/12 10:14:51;;;;;;;21.10;19.70;;;;;;;;;;5053052;28;20403;-63
2023/06/12 10:17:18;;;;;;;21.75;20.25;;;;;;;;;;5052721;28;20080;-64
2023/06/12 10:19:47;;;;;;;19.45;18.02;;;;;;;;;;5052671;28;20045;-63
2023/06/12 10:22:14;;;;;;;20.33;18.83;;;;;;;;;;5052464;28;20055;-63
2023/06/12 10:24:41;;;;;;;18.92;17.42;;;;;;;;;;5052494;28;20055;-62
2023/06/12 10:27:08;;;;;;;18.38;16.98;;;;;;;;;;5053954;28;20128;-63
2023/06/12 10:29:42;;;;;;;21.98;20.38;;;;;;;;;;5072414;28;20561;-63
2023/06/12 10:32:10;;;;;;;22.70;21.10;;;;;;;;;;5072387;28;20415;-62
2023/06/12 10:34:41;;;;;;;22.65;20.83;;;;;;;;;;5072677;28;20052;-63
2023/06/12 10:37:23;;;;;;;22.70;20.92;;;;;;;;;;5072712;28;20056;-61
2023/06/12 10:40:06;;;;;;;22.05;20.35;;;;;;;;;;5072450;28;20052;-62
2023/06/12 10:42:40;;;;;;;22.45;20.75;;;;;;;;;;5071946;28;20052;-62
2023/06/12 10:45:22;;;;;;;23.38;21.63;;;;;;;;;;5072110;28;20502;-62
2023/06/12 10:48:06;;;;;;;23.83;22.02;;;;;;;;;;5072422;28;20044;-62
2023/06/12 10:50:44;;;;;;;24.10;22.30;;;;;;;;;;5072145;28;20500;-62
2023/06/12 10:53:22;;;;;;;24.45;22.65;;;;;;;;;;5072279;28;20110;-62
2023/06/12 10:55:53;;;;;;;24.60;22.60;;;;;;;;;;5072158;28;20087;-62
2023/06/12 10:58:20;;;;;;;25.40;23.40;;;;;;;;;;5072157;28;20110;-62
2023/06/12 11:00:48;;;;;;;22.88;21.17;;;;;;;;;;5071866;28;20052;-63
2023/06/12 11:03:21;;;;;;;20.92;19.42;;;;;;;;;;5072080;28;20078;-62
2023/06/12 11:05:54;;;;;;;20.23;18.83;;;;;;;;;;5072061;28;20127;-62
2023/06/12 11:08:21;;;;;;;21.63;20.13;;;;;;;;;;5055156;28;20049;-63
2023/06/12 11:10:47;;;;;;;20.90;19.40;;;;;;;;;;5071335;28;20127;-62
2023/06/12 11:13:14;;;;;;;;;;;;;;;;;;5053686;28;20189;-62
2023/06/12 11:15:42;;;;;;;20.30;18.88;;;;;;;;;;5071059;28;19920;-62
2023/06/12 11:18:09;;;;;;;18.48;17.17;;;;;;;;;;5071081;28;20079;-62
2023/06/12 11:20:36;;;;;;;17.83;16.52;;;;;;;;;;5053932;28;20049;-62
2023/06/12 11:23:03;;;;;;;17.23;16.13;;;;;;;;;;5051066;28;20049;-63
2023/06/12 11:25:34;;;;;;;15.57;14.57;;;;;;;;;;5051054;28;20049;-63
2023/06/12 11:28:00;;;;;;;16.90;15.70;;;;;;;;;;5054951;28;20049;-67
2023/06/12 11:30:27;;;;;;;17.33;16.13;;;;;;;;;;5051555;28;20412;-67
2023/06/12 11:33:08;;;;;;;17.60;16.40;;;;;;;;;;5070198;28;20051;-66
2023/06/12 11:35:39;;;;;;;17.38;16.08;;;;;;;;;;5069625;28;20052;-66
2023/06/12 11:38:05;;;;;;;18.27;16.98;;;;;;;;;;5069579;28;20052;-66
2023/06/12 11:40:34;;;;;;;17.38;16.15;;;;;;;;;;5069623;28;20053;-66
2023/06/12 11:43:01;;;;;;;16.83;15.73;;;;;;;;;;5070012;28;20051;-66
2023/06/12 11:45:29;;;;;;;19.40;17.88;;;;;;;;;;5069432;28;20110;-67
2023/06/12 11:47:57;;;;;;;18.70;17.38;;;;;;;;;;5070378;28;20377;-67
2023/06/12 11:50:27;;;;;;;20.92;19.33;;;;;;;;;;5071339;28;20056;-66
2023/06/12 11:52:54;;;;;;;19.92;18.52;;;;;;;;;;5071433;28;20151;-66
2023/06/12 11:55:21;;;;;;;20.33;18.83;;;;;;;;;;5074122;28;20052;-66
2023/06/12 11:57:51;;;;;;;20.33;18.75;;;;;;;;;;5075391;28;20094;-66
2023/06/12 12:00:19;;;;;;;21.20;19.58;;;;;;;;;;5075607;28;20045;-66
2023/06/12 12:02:51;;;;;;;18.42;17.08;;;;;;;;;;5075257;28;20045;-65
2023/06/12 12:05:22;;;;;;;18.25;16.85;;;;;;;;;;5063304;28;20048;-65
2023/06/12 12:07:50;;;;;;;17.73;16.33;;;;;;;;;;5046481;28;20049;-65
2023/06/12 12:10:16;;;;;;;16.45;15.15;;;;;;;;;;5054849;28;20489;-65
2023/06/12 12:12:49;;;;;;;15.98;14.60;;;;;;;;;;5054904;28;20049;-65
2023/06/12 12:15:16;;;;;;;14.32;13.13;;;;;;;;;;5072300;28;20048;-63
2023/06/12 12:17:43;;;;;;;14.02;12.85;;;;;;;;;;5058759;28;20488;-62
2023/06/12 12:20:14;;;;;;;12.77;11.88;;;;;;;;;;5054658;28;20452;-63
2023/06/12 12:22:42;;;;;;;15.63;14.45;;;;;;;;;;5054751;28;20052;-62
2023/06/12 12:25:09;;;;;;;17.42;15.98;;;;;;;;;;5052615;28;20094;-62
2023/06/12 12:27:38;;;;;;;17.50;16.20;;;;;;;;;;5059763;28;20052;-63
2023/06/12 12:30:05;;;;;;;18.35;16.83;;;;;;;;;;5074808;28;20052;-63
2023/06/12 12:32:32;;;;;;;15.52;14.30;;;;;;;;;;5074309;28;20044;-62
2023/06/12 12:34:58;;;;;;;16.23;14.88;;;;;;;;;;5074355;28;20514;-63
2023/06/12 12:37:25;;;;;;;15.65;14.35;;;;;;;;;;5074195;28;20071;-63
2023/06/12 12:39:52;;;;;;;14.75;13.50;;;;;;;;;;5074145;28;20434;-63
2023/06/12 12:42:18;;;;;;;16.23;15.05;;;;;;;;;;5074059;28;20496;-63
2023/06/12 12:44:45;;;;;;;15.07;13.98;;;;;;;;;;5064584;28;20115;-63
2023/06/12 12:47:11;;;;;;;14.38;13.25;;;;;;;;;;5058990;28;20131;-62
2023/06/12 12:49:38;;;;;;;14.50;13.40;;;;;;;;;;5061389;28;20052;-63
2023/06/12 12:52:14;;;;;;;15.63;14.32;;;;;;;;;;5074101;28;20054;-63
2023/06/12 12:55:02;;;;;;;14.48;13.43;;;;;;;;;;5073989;28;20044;-62
2023/06/12 12:57:32;;;;;;;14.27;13.05;;;;;;;;;;5062738;28;20102;-63
2023/06/12 12:59:59;;;;;;;13.40;12.40;;;;;;;;;;5053543;28;20563;-63
2023/06/12 13:02:26;;;;;;;13.60;12.57;;;;;;;;;;5064089;28;20053;-63
2023/06/12 13:04:53;;;;;;;12.75;11.75;;;;;;;;;;5053058;28;20494;-63
2023/06/12 13:07:20;;;;;;;12.27;11.38;;;;;;;;;;5053616;28;20053;-63
2023/06/12 13:09:47;;;;;;;12.43;11.63;;;;;;;;;;5053543;28;20059;-63
2023/06/12 13:12:13;;;;;;;11.77;10.57;;;;;;;;;;5054300;28;20049;-63
2023/06/12 13:14:40;;;;;;;12.10;11.18;;;;;;;;;;5073740;28;20048;-62
2023/06/12 13:17:06;;;;;;;12.10;11.20;;;;;;;;;;5073627;28;20060;-62
2023/06/12 13:19:33;;;;;;;11.02;10.13;;;;;;;;;;5073287;28;20040;-63
2023/06/12 13:22:00;;;;;;;11.38;10.48;;;;;;;;;;5061605;28;20098;-63
2023/06/12 13:24:26;;;;;;;12.82;11.82;;;;;;;;;;5051402;28;20053;-63
2023/06/12 13:26:53;;;;;;;12.25;11.15;;;;;;;;;;5064984;28;20062;-62
2023/06/12 13:29:20;;;;;;;11.85;10.68;;;;;;;;;;5073414;28;20106;-62
2023/06/12 13:31:46;;;;;;;12.63;11.63;;;;;;;;;;5060107;28;20493;-62
2023/06/12 13:34:13;;;;;;;12.55;11.60;;;;;;;;;;5061110;28;20053;-63
2023/06/12 13:36:40;;;;;;;;;;;;;;;;;;5068882;28;20086;-62
2023/06/12 13:39:06;;;;;;;13.25;12.05;;;;;;;;;;5069817;28;20196;-62
2023/06/12 13:41:33;;;;;;;13.40;12.30;;;;;;;;;;5061815;28;20049;-62
2023/06/12 13:43:59;;;;;;;13.45;12.35;;;;;;;;;;5073156;28;20048;-63
2023/06/12 13:46:27;;;;;;;11.63;10.63;;;;;;;;;;5072804;28;20059;-62
2023/06/12 13:48:54;;;;;;;8.30;7.63;;;;;;;;;;5062983;28;20049;-62
2023/06/12 13:51:20;;;;;;;8.68;7.80;;;;;;;;;;5052245;28;20049;-62
2023/06/12 13:53:51;;;;;;;9.60;7.40;;;;;;;;;;5061700;28;20064;-62
2023/06/12 13:56:18;;;;;;;7.47;6.88;;;;;;;;;;5071096;28;20048;-61
2023/06/12 13:58:44;;;;;;;8.18;7.43;;;;;;;;;;5059186;28;20053;-62
2023/06/12 14:01:10;;;;;;;8.50;7.80;;;;;;;;;;5058805;28;20451;-62
2023/06/12 14:03:37;;;;;;;9.45;8.65;;;;;;;;;;5063601;28;20056;-62
2023/06/12 14:06:04;;;;;;;8.82;8.02;;;;;;;;;;5057064;28;20160;-62
2023/06/12 14:08:31;;;;;;;8.75;8.15;;;;;;;;;;5056018;28;20052;-62
2023/06/12 14:10:59;;;;;;;9.43;8.50;;;;;;;;;;5066576;28;20040;-63
2023/06/12 14:13:25;;;;;;;9.80;8.90;;;;;;;;;;5051309;28;20056;-65
2023/06/12 14:15:52;;;;;;;9.32;8.52;;;;;;;;;;5069453;28;20076;-64
2023/06/12 14:18:18;;;;;;;;;;;;;;;;;;5072535;28;20475;-64
2023/06/12 14:20:45;;;;;;;10.52;9.63;;;;;;;;;;5072608;28;19967;-64
2023/06/12 14:23:11;;;;;;;9.98;9.18;;;;;;;;;;5072948;28;20060;-63
2023/06/12 14:25:38;;;;;;;10.93;9.93;;;;;;;;;;5072776;28;20075;-63